sensor_id;sensor_type;location;lat;lon;timestamp;temperature;humidity
64634;DHT22;51043;52.406;9.690;2023-03-23T00:00:07;12.60;99.90
64634;DHT22;51043;52.406;9.690;2023-03-23T00:02:36;12.60;99.90
64634;DHT22;51043;52.406;9.690;2023-03-23T00:05:04;12.50;99.90
64634;DHT22;51043;52.406;9.690;2023-03-23T00:07:30;12.30;99.90
64634;DHT22;51043;52.406;9.690;2023-03-23T00:09:56;12.10;99.90
64634;DHT22;51043;52.406;9.690;2023-03-23T00:12:24;11.90;99.90
64634;DHT22;51043;52.406;9.690;2023-03-23T00:14:59;11.70;99.90
64634;DHT22;51043;52.406;9.690;2023-03-23T00:17:27;11.50;99.90
64634;DHT22;51043;52.406;9.690;2023-03-23T00:19:53;11.40;99.90
64634;DHT22;51043;52.406;9.690;2023-03-23T00:22:19;11.30;99.90
64634;DHT22;51043;52.406;9.690;2023-03-23T00:24:47;11.20;99.90
64634;DHT22;51043;52.406;9.690;2023-03-23T00:27:14;11.10;99.90
64634;DHT22;51043;52.406;9.690;2023-03-23T00:29:41;11.10;99.90
64634;DHT22;51043;52.406;9.690;2023-03-23T00:32:08;11.10;99.90
64634;DHT22;51043;52.406;9.690;2023-03-23T00:34:38;11.10;99.90
64634;DHT22;51043;52.406;9.690;2023-03-23T00:37:06;11.10;99.90
64634;DHT22;51043;52.406;9.690;2023-03-23T00:39:33;11.00;99.90
64634;DHT22;51043;52.406;9.690;2023-03-23T00:41:59;11.00;99.90
64634;DHT22;51043;52.406;9.690;2023-03-23T00:44:29;11.10;99.90
64634;DHT22;51043;52.406;9.690;2023-03-23T00:46:59;11.00;99.90
64634;DHT22;51043;52.406;9.690;2023-03-23T00:49:26;11.00;99.90
64634;DHT22;51043;52.406;9.690;2023-03-23T00:51:53;11.10;99.90
64634;DHT22;51043;52.406;9.690;2023-03-23T00:54:23;11.00;99.90
64634;DHT22;51043;52.406;9.690;2023-03-23T00:56:49;11.00;99.90
64634;DHT22;51043;52.406;9.690;2023-03-23T00:59:16;11.00;99.90
64634;DHT22;51043;52.406;9.690;2023-03-23T01:01:43;11.00;99.90
64634;DHT22;51043;52.406;9.690;2023-03-23T01:04:09;10.90;99.90
64634;DHT22;51043;52.406;9.690;2023-03-23T01:06:39;11.00;99.90
64634;DHT22;51043;52.406;9.690;2023-03-23T01:09:07;11.00;99.90
64634;DHT22;51043;52.406;9.690;2023-03-23T01:11:34;10.90;99.90
64634;DHT22;51043;52.406;9.690;2023-03-23T01:14:03;11.00;99.90
64634;DHT22;51043;52.406;9.690;2023-03-23T01:16:29;11.00;99.90
64634;DHT22;51043;52.406;9.690;2023-03-23T01:18:55;11.00;99.90
64634;DHT22;51043;52.406;9.690;2023-03-23T01:21:22;11.00;99.90
64634;DHT22;51043;52.406;9.690;2023-03-23T01:23:48;11.00;99.90
64634;DHT22;51043;52.406;9.690;2023-03-23T01:26:16;11.00;99.90
64634;DHT22;51043;52.406;9.690;2023-03-23T01:28:43;11.00;99.90
64634;DHT22;51043;52.406;9.690;2023-03-23T01:31:11;11.10;99.90
64634;DHT22;51043;52.406;9.690;2023-03-23T01:33:38;11.10;99.90
64634;DHT22;51043;52.406;9.690;2023-03-23T01:36:10;11.10;99.90
64634;DHT22;51043;52.406;9.690;2023-03-23T01:38:37;11.10;99.90
64634;DHT22;51043;52.406;9.690;2023-03-23T01:41:04;11.00;99.90
64634;DHT22;51043;52.406;9.690;2023-03-23T01:43:30;11.10;99.90
64634;DHT22;51043;52.406;9.690;2023-03-23T01:45:56;11.10;99.90
64634;DHT22;51043;52.406;9.690;2023-03-23T01:48:29;11.10;99.90
64634;DHT22;51043;52.406;9.690;2023-03-23T01:51:09;11.00;99.90
64634;DHT22;51043;52.406;9.690;2023-03-23T01:53:59;11.00;99.90
64634;DHT22;51043;52.406;9.690;2023-03-23T01:56:41;10.90;99.90
64634;DHT22;51043;52.406;9.690;2023-03-23T01:59:10;11.00;99.90
64634;DHT22;51043;52.406;9.690;2023-03-23T02:01:39;11.10;99.90
64634;DHT22;51043;52.406;9.690;2023-03-23T02:04:11;11.00;99.90
64634;DHT22;51043;52.406;9.690;2023-03-23T02:06:38;11.00;99.90
64634;DHT22;51043;52.406;9.690;2023-03-23T02:09:11;11.00;99.90
64634;DHT22;51043;52.406;9.690;2023-03-23T02:11:39;11.10;99.90
64634;DHT22;51043;52.406;9.690;2023-03-23T02:14:05;11.00;99.90
64634;DHT22;51043;52.406;9.690;2023-03-23T02:16:55;11.00;99.90
64634;DHT22;51043;52.406;9.690;2023-03-23T02:23:01;11.10;99.90
64634;DHT22;51043;52.406;9.690;2023-03-23T02:31:10;11.30;99.90
64634;DHT22;51043;52.406;9.690;2023-03-23T02:33:54;11.30;99.90
64634;DHT22;51043;52.406;9.690;2023-03-23T02:36:47;11.30;99.90
64634;DHT22;51043;52.406;9.690;2023-03-23T02:39:39;11.40;99.90
64634;DHT22;51043;52.406;9.690;2023-03-23T02:42:12;11.30;99.90
64634;DHT22;51043;52.406;9.690;2023-03-23T02:44:41;11.30;99.90
64634;DHT22;51043;52.406;9.690;2023-03-23T02:47:17;11.30;99.90
64634;DHT22;51043;52.406;9.690;2023-03-23T02:49:46;11.40;99.90
64634;DHT22;51043;52.406;9.690;2023-03-23T02:52:17;11.40;99.90
64634;DHT22;51043;52.406;9.690;2023-03-23T02:54:47;11.40;99.90
64634;DHT22;51043;52.406;9.690;2023-03-23T02:57:14;11.40;99.90
64634;DHT22;51043;52.406;9.690;2023-03-23T02:59:43;11.40;99.90
64634;DHT22;51043;52.406;9.690;2023-03-23T03:02:16;11.50;99.90
64634;DHT22;51043;52.406;9.690;2023-03-23T03:04:58;11.50;99.90
64634;DHT22;51043;52.406;9.690;2023-03-23T03:10:10;11.50;99.90
64634;DHT22;51043;52.406;9.690;2023-03-23T03:13:03;11.50;99.90
64634;DHT22;51043;52.406;9.690;2023-03-23T03:15:35;11.40;99.90
64634;DHT22;51043;52.406;9.690;2023-03-23T03:18:12;11.20;99.90
64634;DHT22;51043;52.406;9.690;2023-03-23T03:20:46;11.10;99.90
64634;DHT22;51043;52.406;9.690;2023-03-23T03:23:15;11.10;99.90
64634;DHT22;51043;52.406;9.690;2023-03-23T03:25:44;11.00;99.90
64634;DHT22;51043;52.406;9.690;2023-03-23T03:28:16;11.00;99.90
64634;DHT22;51043;52.406;9.690;2023-03-23T03:30:45;10.90;99.90
64634;DHT22;51043;52.406;9.690;2023-03-23T03:33:12;10.90;99.90
64634;DHT22;51043;52.406;9.690;2023-03-23T03:35:41;10.90;99.90
64634;DHT22;51043;52.406;9.690;2023-03-23T03:38:09;11.00;99.90
64634;DHT22;51043;52.406;9.690;2023-03-23T03:40:35;11.00;99.90
64634;DHT22;51043;52.406;9.690;2023-03-23T03:43:01;11.10;99.90
64634;DHT22;51043;52.406;9.690;2023-03-23T03:45:27;11.10;99.90
64634;DHT22;51043;52.406;9.690;2023-03-23T03:47:53;11.10;99.90
64634;DHT22;51043;52.406;9.690;2023-03-23T03:50:18;11.20;99.90
64634;DHT22;51043;52.406;9.690;2023-03-23T03:52:45;11.20;99.90
64634;DHT22;51043;52.406;9.690;2023-03-23T03:55:11;11.30;99.90
64634;DHT22;51043;52.406;9.690;2023-03-23T03:57:40;11.30;99.90
64634;DHT22;51043;52.406;9.690;2023-03-23T04:00:20;11.40;99.90
64634;DHT22;51043;52.406;9.690;2023-03-23T04:02:49;11.40;99.90
64634;DHT22;51043;52.406;9.690;2023-03-23T04:05:41;11.40;99.90
64634;DHT22;51043;52.406;9.690;2023-03-23T04:08:07;11.50;99.90
64634;DHT22;51043;52.406;9.690;2023-03-23T04:10:33;11.50;99.90
64634;DHT22;51043;52.406;9.690;2023-03-23T04:13:00;11.50;99.90
64634;DHT22;51043;52.406;9.690;2023-03-23T04:15:50;11.50;99.90
64634;DHT22;51043;52.406;9.690;2023-03-23T04:18:17;11.50;99.90
64634;DHT22;51043;52.406;9.690;2023-03-23T04:20:46;11.50;99.90
64634;DHT22;51043;52.406;9.690;2023-03-23T04:23:17;11.50;99.90
64634;DHT22;51043;52.406;9.690;2023-03-23T04:25:49;11.50;99.90
64634;DHT22;51043;52.406;9.690;2023-03-23T04:28:17;11.40;99.90
64634;DHT22;51043;52.406;9.690;2023-03-23T04:31:04;11.50;99.90
64634;DHT22;51043;52.406;9.690;2023-03-23T04:33:29;11.50;99.90
64634;DHT22;51043;52.406;9.690;2023-03-23T04:35:59;11.40;99.90
64634;DHT22;51043;52.406;9.690;2023-03-23T04:38:36;11.40;99.90
64634;DHT22;51043;52.406;9.690;2023-03-23T04:41:10;11.40;99.90
64634;DHT22;51043;52.406;9.690;2023-03-23T04:44:02;11.40;99.90
64634;DHT22;51043;52.406;9.690;2023-03-23T04:46:44;11.40;99.90
64634;DHT22;51043;52.406;9.690;2023-03-23T04:49:16;11.30;99.90
64634;DHT22;51043;52.406;9.690;2023-03-23T04:51:48;11.30;99.90
64634;DHT22;51043;52.406;9.690;2023-03-23T04:54:40;11.30;99.90
64634;DHT22;51043;52.406;9.690;2023-03-23T04:57:07;11.30;99.90
64634;DHT22;51043;52.406;9.690;2023-03-23T04:59:35;11.30;99.90
64634;DHT22;51043;52.406;9.690;2023-03-23T05:02:13;11.30;99.90
64634;DHT22;51043;52.406;9.690;2023-03-23T05:04:41;11.30;99.90
64634;DHT22;51043;52.406;9.690;2023-03-23T05:07:11;11.30;99.90
64634;DHT22;51043;52.406;9.690;2023-03-23T05:09:47;11.30;99.90
64634;DHT22;51043;52.406;9.690;2023-03-23T05:12:13;11.40;99.90
64634;DHT22;51043;52.406;9.690;2023-03-23T05:14:55;11.40;99.90
64634;DHT22;51043;52.406;9.690;2023-03-23T05:17:24;11.50;99.90
64634;DHT22;51043;52.406;9.690;2023-03-23T05:19:53;11.40;99.90
64634;DHT22;51043;52.406;9.690;2023-03-23T05:22:38;11.40;99.90
64634;DHT22;51043;52.406;9.690;2023-03-23T05:25:07;11.30;99.90
64634;DHT22;51043;52.406;9.690;2023-03-23T05:27:40;11.30;99.90
64634;DHT22;51043;52.406;9.690;2023-03-23T05:30:31;11.30;99.90
64634;DHT22;51043;52.406;9.690;2023-03-23T05:32:57;11.30;99.90
64634;DHT22;51043;52.406;9.690;2023-03-23T05:35:40;11.40;99.90
64634;DHT22;51043;52.406;9.690;2023-03-23T05:38:07;11.40;99.90
64634;DHT22;51043;52.406;9.690;2023-03-23T05:40:33;11.40;99.90
64634;DHT22;51043;52.406;9.690;2023-03-23T05:43:07;11.50;99.90
64634;DHT22;51043;52.406;9.690;2023-03-23T05:45:59;11.40;99.90
64634;DHT22;51043;52.406;9.690;2023-03-23T05:48:25;11.50;99.90
64634;DHT22;51043;52.406;9.690;2023-03-23T05:50:52;11.50;99.90
64634;DHT22;51043;52.406;9.690;2023-03-23T05:53:21;11.50;99.90
64634;DHT22;51043;52.406;9.690;2023-03-23T05:55:47;11.60;99.90
64634;DHT22;51043;52.406;9.690;2023-03-23T05:58:37;11.50;99.90
64634;DHT22;51043;52.406;9.690;2023-03-23T06:01:07;11.50;99.90
64634;DHT22;51043;52.406;9.690;2023-03-23T06:03:33;11.60;99.90
64634;DHT22;51043;52.406;9.690;2023-03-23T06:06:10;11.60;99.90
64634;DHT22;51043;52.406;9.690;2023-03-23T06:08:53;11.60;99.90
64634;DHT22;51043;52.406;9.690;2023-03-23T06:11:33;11.60;99.90
64634;DHT22;51043;52.406;9.690;2023-03-23T06:14:19;11.60;99.90
64634;DHT22;51043;52.406;9.690;2023-03-23T06:16:45;11.70;99.90
64634;DHT22;51043;52.406;9.690;2023-03-23T06:19:14;11.70;99.90
64634;DHT22;51043;52.406;9.690;2023-03-23T06:21:49;11.80;99.90
64634;DHT22;51043;52.406;9.690;2023-03-23T06:24:28;11.80;99.90
64634;DHT22;51043;52.406;9.690;2023-03-23T06:26:54;11.80;99.90
64634;DHT22;51043;52.406;9.690;2023-03-23T06:29:21;11.80;99.90
64634;DHT22;51043;52.406;9.690;2023-03-23T06:31:57;11.80;99.90
64634;DHT22;51043;52.406;9.690;2023-03-23T06:34:26;11.80;99.90
64634;DHT22;51043;52.406;9.690;2023-03-23T06:37:20;11.80;99.90
64634;DHT22;51043;52.406;9.690;2023-03-23T06:39:58;11.90;99.90
64634;DHT22;51043;52.406;9.690;2023-03-23T06:42:30;12.00;99.90
64634;DHT22;51043;52.406;9.690;2023-03-23T06:45:18;11.90;99.90
64634;DHT22;51043;52.406;9.690;2023-03-23T06:47:51;12.10;99.90
64634;DHT22;51043;52.406;9.690;2023-03-23T06:50:17;12.10;99.90
64634;DHT22;51043;52.406;9.690;2023-03-23T06:52:48;12.10;99.90
64634;DHT22;51043;52.406;9.690;2023-03-23T06:55:15;12.20;99.90
64634;DHT22;51043;52.406;9.690;2023-03-23T06:57:43;12.20;99.90
64634;DHT22;51043;52.406;9.690;2023-03-23T07:00:10;12.30;99.90
64634;DHT22;51043;52.406;9.690;2023-03-23T07:02:41;12.20;99.90
64634;DHT22;51043;52.406;9.690;2023-03-23T07:05:09;12.20;99.90
64634;DHT22;51043;52.406;9.690;2023-03-23T07:07:40;12.20;99.90
64634;DHT22;51043;52.406;9.690;2023-03-23T07:10:30;12.30;99.90
64634;DHT22;51043;52.406;9.690;2023-03-23T07:12:56;12.50;99.90
64634;DHT22;51043;52.406;9.690;2023-03-23T07:15:23;12.40;99.90
64634;DHT22;51043;52.406;9.690;2023-03-23T07:17:53;12.50;99.90
64634;DHT22;51043;52.406;9.690;2023-03-23T07:20:28;12.50;99.90
64634;DHT22;51043;52.406;9.690;2023-03-23T07:22:54;12.60;99.90
64634;DHT22;51043;52.406;9.690;2023-03-23T07:25:34;12.70;99.90
64634;DHT22;51043;52.406;9.690;2023-03-23T07:28:02;12.70;99.90
64634;DHT22;51043;52.406;9.690;2023-03-23T07:30:29;12.90;99.90
64634;DHT22;51043;52.406;9.690;2023-03-23T07:32:56;13.10;99.90
64634;DHT22;51043;52.406;9.690;2023-03-23T07:35:23;13.20;99.90
64634;DHT22;51043;52.406;9.690;2023-03-23T07:37:57;13.20;99.90
64634;DHT22;51043;52.406;9.690;2023-03-23T07:40:24;13.30;99.90
64634;DHT22;51043;52.406;9.690;2023-03-23T07:42:55;13.40;99.90
64634;DHT22;51043;52.406;9.690;2023-03-23T07:45:48;13.70;99.90
64634;DHT22;51043;52.406;9.690;2023-03-23T07:48:15;14.40;99.90
64634;DHT22;51043;52.406;9.690;2023-03-23T07:50:41;14.90;99.90
64634;DHT22;51043;52.406;9.690;2023-03-23T07:53:10;15.20;99.90
64634;DHT22;51043;52.406;9.690;2023-03-23T07:55:37;15.20;99.90
64634;DHT22;51043;52.406;9.690;2023-03-23T07:58:07;15.30;99.90
64634;DHT22;51043;52.406;9.690;2023-03-23T08:00:34;15.30;99.90
64634;DHT22;51043;52.406;9.690;2023-03-23T08:03:05;15.10;99.90
64634;DHT22;51043;52.406;9.690;2023-03-23T08:05:35;15.20;99.90
64634;DHT22;51043;52.406;9.690;2023-03-23T08:08:30;15.20;99.90
64634;DHT22;51043;52.406;9.690;2023-03-23T08:11:28;15.20;99.90
64634;DHT22;51043;52.406;9.690;2023-03-23T08:14:12;15.40;99.90
64634;DHT22;51043;52.406;9.690;2023-03-23T08:16:49;15.40;99.90
64634;DHT22;51043;52.406;9.690;2023-03-23T08:19:35;15.10;99.90
64634;DHT22;51043;52.406;9.690;2023-03-23T08:22:34;15.00;99.90
64634;DHT22;51043;52.406;9.690;2023-03-23T08:25:29;15.30;99.90
64634;DHT22;51043;52.406;9.690;2023-03-23T08:28:15;15.30;99.90
64634;DHT22;51043;52.406;9.690;2023-03-23T08:31:05;15.00;99.90
64634;DHT22;51043;52.406;9.690;2023-03-23T08:33:50;14.80;99.90
64634;DHT22;51043;52.406;9.690;2023-03-23T08:36:36;14.60;99.90
64634;DHT22;51043;52.406;9.690;2023-03-23T08:39:18;14.60;99.90
64634;DHT22;51043;52.406;9.690;2023-03-23T08:42:11;14.60;99.90
64634;DHT22;51043;52.406;9.690;2023-03-23T08:44:43;14.50;99.90
64634;DHT22;51043;52.406;9.690;2023-03-23T08:47:38;14.40;99.90
64634;DHT22;51043;52.406;9.690;2023-03-23T08:50:05;14.50;99.90
64634;DHT22;51043;52.406;9.690;2023-03-23T08:52:50;14.50;99.90
64634;DHT22;51043;52.406;9.690;2023-03-23T08:55:47;14.60;99.90
64634;DHT22;51043;52.406;9.690;2023-03-23T08:58:18;14.60;99.90
64634;DHT22;51043;52.406;9.690;2023-03-23T09:01:03;14.60;99.90
64634;DHT22;51043;52.406;9.690;2023-03-23T09:03:42;14.40;99.90
64634;DHT22;51043;52.406;9.690;2023-03-23T09:06:36;14.30;99.90
64634;DHT22;51043;52.406;9.690;2023-03-23T09:09:02;14.10;99.90
64634;DHT22;51043;52.406;9.690;2023-03-23T09:11:33;14.10;99.90
64634;DHT22;51043;52.406;9.690;2023-03-23T09:14:00;14.10;99.90
64634;DHT22;51043;52.406;9.690;2023-03-23T09:16:26;14.10;99.90
64634;DHT22;51043;52.406;9.690;2023-03-23T09:18:53;14.20;99.90
64634;DHT22;51043;52.406;9.690;2023-03-23T09:21:19;14.10;99.90
64634;DHT22;51043;52.406;9.690;2023-03-23T09:23:45;14.20;99.90
64634;DHT22;51043;52.406;9.690;2023-03-23T09:26:12;14.20;99.90
64634;DHT22;51043;52.406;9.690;2023-03-23T09:28:37;14.30;99.90
64634;DHT22;51043;52.406;9.690;2023-03-23T09:31:04;14.40;99.90
64634;DHT22;51043;52.406;9.690;2023-03-23T09:33:30;14.40;99.90
64634;DHT22;51043;52.406;9.690;2023-03-23T09:35:59;14.50;99.90
64634;DHT22;51043;52.406;9.690;2023-03-23T09:38:25;14.60;99.90
64634;DHT22;51043;52.406;9.690;2023-03-23T09:52:18;14.50;99.90
64634;DHT22;51043;52.406;9.690;2023-03-23T09:54:53;14.50;99.90
64634;DHT22;51043;52.406;9.690;2023-03-23T10:00:18;14.40;99.90
64634;DHT22;51043;52.406;9.690;2023-03-23T10:02:49;14.20;99.90
64634;DHT22;51043;52.406;9.690;2023-03-23T10:05:32;14.10;99.90
64634;DHT22;51043;52.406;9.690;2023-03-23T10:08:00;14.00;99.90
64634;DHT22;51043;52.406;9.690;2023-03-23T10:10:48;14.00;99.90
64634;DHT22;51043;52.406;9.690;2023-03-23T10:16:13;14.00;99.90
64634;DHT22;51043;52.406;9.690;2023-03-23T10:21:17;14.20;99.90
64634;DHT22;51043;52.406;9.690;2023-03-23T10:23:58;14.40;99.90
64634;DHT22;51043;52.406;9.690;2023-03-23T10:32:53;14.70;99.90
64634;DHT22;51043;52.406;9.690;2023-03-23T10:35:15;14.70;99.90
64634;DHT22;51043;52.406;9.690;2023-03-23T10:37:50;14.80;99.90
64634;DHT22;51043;52.406;9.690;2023-03-23T10:40:22;15.00;99.90
64634;DHT22;51043;52.406;9.690;2023-03-23T10:42:50;15.30;99.90
64634;DHT22;51043;52.406;9.690;2023-03-23T10:45:19;15.60;99.90
64634;DHT22;51043;52.406;9.690;2023-03-23T10:47:52;15.70;99.90
64634;DHT22;51043;52.406;9.690;2023-03-23T10:50:41;15.80;99.90
64634;DHT22;51043;52.406;9.690;2023-03-23T10:53:19;15.80;99.90
64634;DHT22;51043;52.406;9.690;2023-03-23T10:55:45;15.90;99.90
64634;DHT22;51043;52.406;9.690;2023-03-23T10:58:28;16.40;99.90
64634;DHT22;51043;52.406;9.690;2023-03-23T11:00:55;16.80;99.90
64634;DHT22;51043;52.406;9.690;2023-03-23T11:06:03;16.80;99.90
64634;DHT22;51043;52.406;9.690;2023-03-23T11:08:34;16.70;99.90
64634;DHT22;51043;52.406;9.690;2023-03-23T11:11:17;16.60;99.90
64634;DHT22;51043;52.406;9.690;2023-03-23T11:13:47;16.50;99.90
64634;DHT22;51043;52.406;9.690;2023-03-23T11:16:32;16.40;99.90
64634;DHT22;51043;52.406;9.690;2023-03-23T11:19:10;16.30;99.90
64634;DHT22;51043;52.406;9.690;2023-03-23T11:21:37;16.30;99.90
64634;DHT22;51043;52.406;9.690;2023-03-23T11:24:05;16.40;99.90
64634;DHT22;51043;52.406;9.690;2023-03-23T11:26:33;16.40;99.90
64634;DHT22;51043;52.406;9.690;2023-03-23T11:29:05;16.10;99.90
64634;DHT22;51043;52.406;9.690;2023-03-23T11:31:34;16.00;99.90
64634;DHT22;51043;52.406;9.690;2023-03-23T11:34:04;16.00;99.90
64634;DHT22;51043;52.406;9.690;2023-03-23T11:36:38;15.90;99.90
64634;DHT22;51043;52.406;9.690;2023-03-23T11:39:25;15.80;99.90
64634;DHT22;51043;52.406;9.690;2023-03-23T11:41:52;15.80;99.90
64634;DHT22;51043;52.406;9.690;2023-03-23T11:44:21;15.70;99.90
64634;DHT22;51043;52.406;9.690;2023-03-23T11:49:55;15.90;99.90
64634;DHT22;51043;52.406;9.690;2023-03-23T11:52:44;15.90;99.90
64634;DHT22;51043;52.406;9.690;2023-03-23T11:55:16;15.70;99.90
64634;DHT22;51043;52.406;9.690;2023-03-23T11:57:44;15.60;99.90
64634;DHT22;51043;52.406;9.690;2023-03-23T12:00:18;15.50;99.90
64634;DHT22;51043;52.406;9.690;2023-03-23T12:02:59;15.20;99.90
64634;DHT22;51043;52.406;9.690;2023-03-23T12:08:40;14.60;99.90
64634;DHT22;51043;52.406;9.690;2023-03-23T12:20:25;12.00;99.90
64634;DHT22;51043;52.406;9.690;2023-03-23T12:26:17;11.80;99.90
64634;DHT22;51043;52.406;9.690;2023-03-23T12:31:53;11.70;99.90
64634;DHT22;51043;52.406;9.690;2023-03-23T12:34:45;11.70;99.90
64634;DHT22;51043;52.406;9.690;2023-03-23T12:46:43;11.50;99.90
64634;DHT22;51043;52.406;9.690;2023-03-23T12:48:56;11.60;99.90
64634;DHT22;51043;52.406;9.690;2023-03-23T12:51:31;11.60;99.90
64634;DHT22;51043;52.406;9.690;2023-03-23T12:54:22;11.60;99.90
64634;DHT22;51043;52.406;9.690;2023-03-23T12:57:17;11.70;99.90
64634;DHT22;51043;52.406;9.690;2023-03-23T13:05:51;12.20;99.90
64634;DHT22;51043;52.406;9.690;2023-03-23T13:08:49;12.20;99.90
64634;DHT22;51043;52.406;9.690;2023-03-23T13:11:33;12.20;99.90
64634;DHT22;51043;52.406;9.690;2023-03-23T13:14:10;12.30;99.90
64634;DHT22;51043;52.406;9.690;2023-03-23T13:22:02;12.20;99.90
64634;DHT22;51043;52.406;9.690;2023-03-23T13:24:33;12.10;99.90
64634;DHT22;51043;52.406;9.690;2023-03-23T13:27:00;12.10;99.90
64634;DHT22;51043;52.406;9.690;2023-03-23T13:29:27;12.00;99.90
64634;DHT22;51043;52.406;9.690;2023-03-23T13:32:12;11.90;99.90
64634;DHT22;51043;52.406;9.690;2023-03-23T13:34:40;11.70;99.90
64634;DHT22;51043;52.406;9.690;2023-03-23T13:37:21;11.60;99.90
64634;DHT22;51043;52.406;9.690;2023-03-23T13:39:50;11.60;99.90
64634;DHT22;51043;52.406;9.690;2023-03-23T13:42:21;11.60;99.90
64634;DHT22;51043;52.406;9.690;2023-03-23T13:50:23;11.70;99.90
64634;DHT22;51043;52.406;9.690;2023-03-23T13:52:59;11.60;99.90
64634;DHT22;51043;52.406;9.690;2023-03-23T14:05:43;12.10;99.90
64634;DHT22;51043;52.406;9.690;2023-03-23T14:10:50;12.30;99.90
64634;DHT22;51043;52.406;9.690;2023-03-23T14:13:20;12.40;99.90
64634;DHT22;51043;52.406;9.690;2023-03-23T14:16:05;12.60;99.90
64634;DHT22;51043;52.406;9.690;2023-03-23T14:18:40;12.80;99.90
64634;DHT22;51043;52.406;9.690;2023-03-23T14:21:16;12.90;99.90
64634;DHT22;51043;52.406;9.690;2023-03-23T14:23:42;12.80;99.90
64634;DHT22;51043;52.406;9.690;2023-03-23T14:26:19;12.80;99.90
64634;DHT22;51043;52.406;9.690;2023-03-23T14:28:50;12.80;99.90
64634;DHT22;51043;52.406;9.690;2023-03-23T14:31:24;12.70;99.90
64634;DHT22;51043;52.406;9.690;2023-03-23T14:33:52;12.80;99.90
64634;DHT22;51043;52.406;9.690;2023-03-23T14:36:28;12.90;99.90
64634;DHT22;51043;52.406;9.690;2023-03-23T14:41:32;13.30;99.90
64634;DHT22;51043;52.406;9.690;2023-03-23T14:44:01;13.40;99.90
64634;DHT22;51043;52.406;9.690;2023-03-23T14:46:27;13.40;99.90
64634;DHT22;51043;52.406;9.690;2023-03-23T14:48:54;13.20;99.90
64634;DHT22;51043;52.406;9.690;2023-03-23T14:51:21;13.20;99.90
64634;DHT22;51043;52.406;9.690;2023-03-23T14:53:47;13.20;99.90
64634;DHT22;51043;52.406;9.690;2023-03-23T14:56:20;13.10;99.90
64634;DHT22;51043;52.406;9.690;2023-03-23T14:58:50;13.10;99.90
64634;DHT22;51043;52.406;9.690;2023-03-23T15:01:24;13.10;99.90
64634;DHT22;51043;52.406;9.690;2023-03-23T15:06:30;12.90;99.90
64634;DHT22;51043;52.406;9.690;2023-03-23T15:09:00;13.00;99.90
64634;DHT22;51043;52.406;9.690;2023-03-23T15:11:34;13.10;99.90
64634;DHT22;51043;52.406;9.690;2023-03-23T15:14:16;13.20;99.90
64634;DHT22;51043;52.406;9.690;2023-03-23T15:16:54;13.20;99.90
64634;DHT22;51043;52.406;9.690;2023-03-23T15:19:31;13.20;99.90
64634;DHT22;51043;52.406;9.690;2023-03-23T15:22:07;13.10;99.90
64634;DHT22;51043;52.406;9.690;2023-03-23T15:24:41;13.00;99.90
64634;DHT22;51043;52.406;9.690;2023-03-23T15:27:17;12.90;99.90
64634;DHT22;51043;52.406;9.690;2023-03-23T15:29:47;12.90;99.90
64634;DHT22;51043;52.406;9.690;2023-03-23T15:32:23;13.00;99.90
64634;DHT22;51043;52.406;9.690;2023-03-23T15:34:49;12.90;99.90
64634;DHT22;51043;52.406;9.690;2023-03-23T15:37:41;12.90;99.90
64634;DHT22;51043;52.406;9.690;2023-03-23T15:40:18;13.00;99.90
64634;DHT22;51043;52.406;9.690;2023-03-23T15:42:45;13.00;99.90
64634;DHT22;51043;52.406;9.690;2023-03-23T15:47:44;12.90;99.90
64634;DHT22;51043;52.406;9.690;2023-03-23T15:50:33;12.90;99.90
64634;DHT22;51043;52.406;9.690;2023-03-23T15:53:00;12.90;99.90
64634;DHT22;51043;52.406;9.690;2023-03-23T15:55:41;13.00;99.90
64634;DHT22;51043;52.406;9.690;2023-03-23T15:58:12;13.00;99.90
64634;DHT22;51043;52.406;9.690;2023-03-23T16:00:40;12.90;99.90
64634;DHT22;51043;52.406;9.690;2023-03-23T16:03:11;12.80;99.90
64634;DHT22;51043;52.406;9.690;2023-03-23T16:05:39;12.60;99.90
64634;DHT22;51043;52.406;9.690;2023-03-23T16:08:10;12.60;99.90
64634;DHT22;51043;52.406;9.690;2023-03-23T16:10:41;12.50;99.90
64634;DHT22;51043;52.406;9.690;2023-03-23T16:13:09;12.50;99.90
64634;DHT22;51043;52.406;9.690;2023-03-23T16:15:36;12.50;99.90
64634;DHT22;51043;52.406;9.690;2023-03-23T16:18:03;12.50;99.90
64634;DHT22;51043;52.406;9.690;2023-03-23T16:20:30;12.40;99.90
64634;DHT22;51043;52.406;9.690;2023-03-23T16:22:58;12.30;99.90
64634;DHT22;51043;52.406;9.690;2023-03-23T16:25:26;12.40;99.90
64634;DHT22;51043;52.406;9.690;2023-03-23T16:27:53;12.40;99.90
64634;DHT22;51043;52.406;9.690;2023-03-23T16:30:23;12.50;99.90
64634;DHT22;51043;52.406;9.690;2023-03-23T16:32:50;12.60;99.90
64634;DHT22;51043;52.406;9.690;2023-03-23T16:35:18;12.60;99.90
64634;DHT22;51043;52.406;9.690;2023-03-23T16:37:46;12.60;99.90
64634;DHT22;51043;52.406;9.690;2023-03-23T16:40:15;12.60;99.90
64634;DHT22;51043;52.406;9.690;2023-03-23T16:42:42;12.50;99.90
64634;DHT22;51043;52.406;9.690;2023-03-23T16:45:10;12.50;99.90
64634;DHT22;51043;52.406;9.690;2023-03-23T16:47:38;12.60;99.90
64634;DHT22;51043;52.406;9.690;2023-03-23T16:50:07;12.60;99.90
64634;DHT22;51043;52.406;9.690;2023-03-23T16:52:38;12.50;99.90
64634;DHT22;51043;52.406;9.690;2023-03-23T16:55:07;12.50;99.90
64634;DHT22;51043;52.406;9.690;2023-03-23T16:57:35;12.50;99.90
64634;DHT22;51043;52.406;9.690;2023-03-23T17:00:05;12.50;99.90
64634;DHT22;51043;52.406;9.690;2023-03-23T17:02:33;12.40;99.90
64634;DHT22;51043;52.406;9.690;2023-03-23T17:05:01;12.40;99.90
64634;DHT22;51043;52.406;9.690;2023-03-23T17:07:28;12.30;99.90
64634;DHT22;51043;52.406;9.690;2023-03-23T17:09:54;12.20;99.90
64634;DHT22;51043;52.406;9.690;2023-03-23T17:12:21;12.10;99.90
64634;DHT22;51043;52.406;9.690;2023-03-23T17:14:48;12.10;99.90
64634;DHT22;51043;52.406;9.690;2023-03-23T17:17:15;12.10;99.90
64634;DHT22;51043;52.406;9.690;2023-03-23T17:19:41;12.10;99.90
64634;DHT22;51043;52.406;9.690;2023-03-23T17:22:08;12.20;99.90
64634;DHT22;51043;52.406;9.690;2023-03-23T17:24:35;12.20;99.90
64634;DHT22;51043;52.406;9.690;2023-03-23T17:27:02;12.20;99.90
64634;DHT22;51043;52.406;9.690;2023-03-23T17:29:28;12.20;99.90
64634;DHT22;51043;52.406;9.690;2023-03-23T17:31:55;12.20;99.90
64634;DHT22;51043;52.406;9.690;2023-03-23T17:34:22;12.20;99.90
64634;DHT22;51043;52.406;9.690;2023-03-23T17:36:49;12.20;99.90
64634;DHT22;51043;52.406;9.690;2023-03-23T17:39:15;12.30;99.90
64634;DHT22;51043;52.406;9.690;2023-03-23T17:41:42;12.20;99.90
64634;DHT22;51043;52.406;9.690;2023-03-23T17:44:09;12.20;99.90
64634;DHT22;51043;52.406;9.690;2023-03-23T17:46:36;12.20;99.90
64634;DHT22;51043;52.406;9.690;2023-03-23T17:49:03;12.20;99.90
64634;DHT22;51043;52.406;9.690;2023-03-23T17:51:30;12.20;99.90